sensor_id;sensor_type;location;lat;lon;timestamp;P1;durP1;ratioP1;P2;durP2;ratioP2
65418;SDS011;52027;50.658;14.004;2023-02-01T00:01:45;2.75;;;1.20;;
65418;SDS011;52027;50.658;14.004;2023-02-01T00:04:11;2.80;;;1.10;;
65418;SDS011;52027;50.658;14.004;2023-02-01T00:06:36;3.50;;;1.13;;
65418;SDS011;52027;50.658;14.004;2023-02-01T00:09:02;2.88;;;1.13;;
65418;SDS011;52027;50.658;14.004;2023-02-01T00:11:27;2.17;;;1.10;;
65418;SDS011;52027;50.658;14.004;2023-02-01T00:13:52;4.15;;;1.20;;
65418;SDS011;52027;50.658;14.004;2023-02-01T00:16:19;3.03;;;1.15;;
65418;SDS011;52027;50.658;14.004;2023-02-01T00:18:47;2.40;;;1.05;;
65418;SDS011;52027;50.658;14.004;2023-02-01T00:21:14;2.85;;;1.20;;
65418;SDS011;52027;50.658;14.004;2023-02-01T00:23:42;2.20;;;1.08;;
65418;SDS011;52027;50.658;14.004;2023-02-01T00:26:11;3.42;;;1.20;;
65418;SDS011;52027;50.658;14.004;2023-02-01T00:28:39;2.70;;;1.10;;
65418;SDS011;52027;50.658;14.004;2023-02-01T00:31:05;3.50;;;1.30;;
65418;SDS011;52027;50.658;14.004;2023-02-01T00:33:31;2.45;;;1.10;;
65418;SDS011;52027;50.658;14.004;2023-02-01T00:35:57;2.17;;;0.90;;
65418;SDS011;52027;50.658;14.004;2023-02-01T00:38:23;1.95;;;1.00;;
65418;SDS011;52027;50.658;14.004;2023-02-01T00:40:50;1.98;;;1.10;;
65418;SDS011;52027;50.658;14.004;2023-02-01T00:43:15;3.42;;;1.13;;
65418;SDS011;52027;50.658;14.004;2023-02-01T00:45:40;2.53;;;1.08;;
65418;SDS011;52027;50.658;14.004;2023-02-01T00:48:06;2.30;;;1.00;;
65418;SDS011;52027;50.658;14.004;2023-02-01T00:50:31;2.55;;;1.00;;
65418;SDS011;52027;50.658;14.004;2023-02-01T00:52:56;2.72;;;1.05;;
65418;SDS011;52027;50.658;14.004;2023-02-01T00:55:22;2.13;;;1.00;;
65418;SDS011;52027;50.658;14.004;2023-02-01T00:57:47;2.33;;;1.05;;
65418;SDS011;52027;50.658;14.004;2023-02-01T01:00:12;2.63;;;1.10;;
65418;SDS011;52027;50.658;14.004;2023-02-01T01:02:38;2.88;;;1.02;;
65418;SDS011;52027;50.658;14.004;2023-02-01T01:05:03;2.45;;;1.00;;
65418;SDS011;52027;50.658;14.004;2023-02-01T01:07:29;2.47;;;0.90;;
65418;SDS011;52027;50.658;14.004;2023-02-01T01:09:54;2.70;;;1.10;;
65418;SDS011;52027;50.658;14.004;2023-02-01T01:12:20;1.90;;;0.93;;
65418;SDS011;52027;50.658;14.004;2023-02-01T01:14:45;2.42;;;1.00;;
65418;SDS011;52027;50.658;14.004;2023-02-01T01:17:10;3.17;;;0.95;;
65418;SDS011;52027;50.658;14.004;2023-02-01T01:19:36;2.80;;;1.20;;
65418;SDS011;52027;50.658;14.004;2023-02-01T01:22:01;1.95;;;0.90;;
65418;SDS011;52027;50.658;14.004;2023-02-01T01:24:26;2.13;;;0.90;;
65418;SDS011;52027;50.658;14.004;2023-02-01T01:26:52;2.25;;;1.00;;
65418;SDS011;52027;50.658;14.004;2023-02-01T01:29:18;2.78;;;1.00;;
65418;SDS011;52027;50.658;14.004;2023-02-01T01:31:43;2.90;;;1.08;;
65418;SDS011;52027;50.658;14.004;2023-02-01T01:34:08;2.30;;;1.00;;
65418;SDS011;52027;50.658;14.004;2023-02-01T01:36:34;2.22;;;1.00;;
65418;SDS011;52027;50.658;14.004;2023-02-01T01:38:59;1.95;;;0.90;;
65418;SDS011;52027;50.658;14.004;2023-02-01T01:41:25;2.70;;;1.10;;
65418;SDS011;52027;50.658;14.004;2023-02-01T01:43:55;2.90;;;1.10;;
65418;SDS011;52027;50.658;14.004;2023-02-01T01:46:32;3.13;;;1.20;;
65418;SDS011;52027;50.658;14.004;2023-02-01T01:51:44;1.83;;;1.00;;
65418;SDS011;52027;50.658;14.004;2023-02-01T01:54:17;2.30;;;1.02;;
65418;SDS011;52027;50.658;14.004;2023-02-01T01:56:49;2.08;;;0.95;;
65418;SDS011;52027;50.658;14.004;2023-02-01T01:59:18;3.00;;;1.10;;
65418;SDS011;52027;50.658;14.004;2023-02-01T02:01:46;2.00;;;0.90;;
65418;SDS011;52027;50.658;14.004;2023-02-01T02:04:11;2.47;;;0.98;;
65418;SDS011;52027;50.658;14.004;2023-02-01T02:06:50;1.65;;;0.90;;
65418;SDS011;52027;50.658;14.004;2023-02-01T02:09:33;3.35;;;0.90;;
65418;SDS011;52027;50.658;14.004;2023-02-01T02:11:58;2.42;;;1.10;;
65418;SDS011;52027;50.658;14.004;2023-02-01T02:14:23;3.70;;;1.00;;
65418;SDS011;52027;50.658;14.004;2023-02-01T02:19:44;2.78;;;0.98;;
65418;SDS011;52027;50.658;14.004;2023-02-01T02:22:28;2.92;;;1.10;;
65418;SDS011;52027;50.658;14.004;2023-02-01T02:27:56;1.50;;;0.80;;
65418;SDS011;52027;50.658;14.004;2023-02-01T02:33:19;2.13;;;0.98;;
65418;SDS011;52027;50.658;14.004;2023-02-01T02:36:00;1.98;;;0.85;;
65418;SDS011;52027;50.658;14.004;2023-02-01T02:47:39;2.13;;;0.90;;
65418;SDS011;52027;50.658;14.004;2023-02-01T02:53:17;2.10;;;0.90;;
65418;SDS011;52027;50.658;14.004;2023-02-01T02:56:05;2.80;;;1.05;;
65418;SDS011;52027;50.658;14.004;2023-02-01T02:58:51;2.65;;;1.00;;
65418;SDS011;52027;50.658;14.004;2023-02-01T03:01:37;1.80;;;0.90;;
65418;SDS011;52027;50.658;14.004;2023-02-01T03:04:23;2.53;;;0.90;;
65418;SDS011;52027;50.658;14.004;2023-02-01T03:06:50;2.15;;;0.88;;
65418;SDS011;52027;50.658;14.004;2023-02-01T03:09:34;2.33;;;1.00;;
65418;SDS011;52027;50.658;14.004;2023-02-01T03:12:03;2.05;;;0.90;;
65418;SDS011;52027;50.658;14.004;2023-02-01T03:14:56;2.58;;;1.00;;
65418;SDS011;52027;50.658;14.004;2023-02-01T03:17:27;1.90;;;0.80;;
65418;SDS011;52027;50.658;14.004;2023-02-01T03:19:59;1.60;;;0.80;;
65418;SDS011;52027;50.658;14.004;2023-02-01T03:22:27;1.55;;;0.80;;
65418;SDS011;52027;50.658;14.004;2023-02-01T03:24:59;1.48;;;0.90;;
65418;SDS011;52027;50.658;14.004;2023-02-01T03:30:05;2.05;;;0.85;;
65418;SDS011;52027;50.658;14.004;2023-02-01T03:32:42;1.92;;;0.93;;
65418;SDS011;52027;50.658;14.004;2023-02-01T03:35:37;1.73;;;0.93;;
65418;SDS011;52027;50.658;14.004;2023-02-01T03:41:27;1.63;;;0.80;;
65418;SDS011;52027;50.658;14.004;2023-02-01T03:46:52;3.60;;;1.00;;
65418;SDS011;52027;50.658;14.004;2023-02-01T03:49:32;2.40;;;0.90;;
65418;SDS011;52027;50.658;14.004;2023-02-01T03:52:00;2.00;;;0.90;;
65418;SDS011;52027;50.658;14.004;2023-02-01T03:54:27;2.13;;;1.00;;
65418;SDS011;52027;50.658;14.004;2023-02-01T03:56:54;1.70;;;0.80;;
65418;SDS011;52027;50.658;14.004;2023-02-01T03:59:21;1.95;;;0.85;;
65418;SDS011;52027;50.658;14.004;2023-02-01T04:01:47;2.30;;;1.05;;
65418;SDS011;52027;50.658;14.004;2023-02-01T04:04:12;1.23;;;0.75;;
65418;SDS011;52027;50.658;14.004;2023-02-01T04:06:45;2.05;;;0.88;;
65418;SDS011;52027;50.658;14.004;2023-02-01T04:09:11;1.55;;;0.90;;
65418;SDS011;52027;50.658;14.004;2023-02-01T04:11:36;1.83;;;0.90;;
65418;SDS011;52027;50.658;14.004;2023-02-01T04:14:01;1.30;;;0.80;;
65418;SDS011;52027;50.658;14.004;2023-02-01T04:16:29;1.40;;;0.80;;
65418;SDS011;52027;50.658;14.004;2023-02-01T04:18:55;1.98;;;0.80;;
65418;SDS011;52027;50.658;14.004;2023-02-01T04:21:20;2.00;;;0.88;;
65418;SDS011;52027;50.658;14.004;2023-02-01T04:23:46;2.10;;;1.00;;
65418;SDS011;52027;50.658;14.004;2023-02-01T04:26:11;2.10;;;0.90;;
65418;SDS011;52027;50.658;14.004;2023-02-01T04:28:36;2.28;;;0.88;;
65418;SDS011;52027;50.658;14.004;2023-02-01T04:31:02;2.20;;;0.90;;
65418;SDS011;52027;50.658;14.004;2023-02-01T04:33:27;1.63;;;0.90;;
65418;SDS011;52027;50.658;14.004;2023-02-01T04:35:52;2.05;;;1.00;;
65418;SDS011;52027;50.658;14.004;2023-02-01T04:38:18;3.05;;;1.10;;
65418;SDS011;52027;50.658;14.004;2023-02-01T04:40:43;2.33;;;0.90;;
65418;SDS011;52027;50.658;14.004;2023-02-01T04:43:12;2.38;;;1.00;;
65418;SDS011;52027;50.658;14.004;2023-02-01T04:45:37;1.75;;;0.80;;
65418;SDS011;52027;50.658;14.004;2023-02-01T04:48:02;3.00;;;0.90;;
65418;SDS011;52027;50.658;14.004;2023-02-01T04:50:28;2.80;;;0.95;;
65418;SDS011;52027;50.658;14.004;2023-02-01T04:52:53;2.72;;;1.08;;
65418;SDS011;52027;50.658;14.004;2023-02-01T04:55:19;2.15;;;0.90;;
65418;SDS011;52027;50.658;14.004;2023-02-01T04:57:44;3.47;;;0.90;;
65418;SDS011;52027;50.658;14.004;2023-02-01T05:00:09;1.48;;;0.80;;
65418;SDS011;52027;50.658;14.004;2023-02-01T05:02:35;2.35;;;0.90;;
65418;SDS011;52027;50.658;14.004;2023-02-01T05:05:01;1.05;;;0.70;;
65418;SDS011;52027;50.658;14.004;2023-02-01T05:07:27;2.55;;;0.85;;
65418;SDS011;52027;50.658;14.004;2023-02-01T05:09:52;2.85;;;1.00;;
65418;SDS011;52027;50.658;14.004;2023-02-01T05:12:17;3.13;;;0.90;;
65418;SDS011;52027;50.658;14.004;2023-02-01T05:15:01;2.63;;;1.20;;
65418;SDS011;52027;50.658;14.004;2023-02-01T05:17:27;2.10;;;0.95;;
65418;SDS011;52027;50.658;14.004;2023-02-01T05:19:52;2.47;;;1.05;;
65418;SDS011;52027;50.658;14.004;2023-02-01T05:22:18;4.55;;;0.93;;
65418;SDS011;52027;50.658;14.004;2023-02-01T05:24:43;3.60;;;0.90;;
65418;SDS011;52027;50.658;14.004;2023-02-01T05:27:09;1.50;;;0.85;;
65418;SDS011;52027;50.658;14.004;2023-02-01T05:29:34;5.18;;;1.00;;
65418;SDS011;52027;50.658;14.004;2023-02-01T05:32:00;3.80;;;1.00;;
65418;SDS011;52027;50.658;14.004;2023-02-01T05:34:25;5.90;;;1.30;;
65418;SDS011;52027;50.658;14.004;2023-02-01T05:36:51;3.85;;;1.00;;
65418;SDS011;52027;50.658;14.004;2023-02-01T05:39:16;6.03;;;1.30;;
65418;SDS011;52027;50.658;14.004;2023-02-01T05:41:41;5.38;;;1.20;;
65418;SDS011;52027;50.658;14.004;2023-02-01T05:44:07;3.58;;;1.15;;
65418;SDS011;52027;50.658;14.004;2023-02-01T05:46:33;2.78;;;1.10;;
65418;SDS011;52027;50.658;14.004;2023-02-01T05:49:00;5.18;;;0.98;;
65418;SDS011;52027;50.658;14.004;2023-02-01T05:51:25;2.58;;;1.00;;
65418;SDS011;52027;50.658;14.004;2023-02-01T05:53:50;3.85;;;1.13;;
65418;SDS011;52027;50.658;14.004;2023-02-01T05:56:16;4.05;;;1.20;;
65418;SDS011;52027;50.658;14.004;2023-02-01T05:58:41;3.10;;;1.05;;
65418;SDS011;52027;50.658;14.004;2023-02-01T06:01:06;3.13;;;1.00;;
65418;SDS011;52027;50.658;14.004;2023-02-01T06:03:32;5.32;;;1.20;;
65418;SDS011;52027;50.658;14.004;2023-02-01T06:05:57;4.78;;;1.08;;
65418;SDS011;52027;50.658;14.004;2023-02-01T06:08:23;6.18;;;1.25;;
65418;SDS011;52027;50.658;14.004;2023-02-01T06:10:50;5.28;;;1.20;;
65418;SDS011;52027;50.658;14.004;2023-02-01T06:13:16;6.53;;;1.30;;
65418;SDS011;52027;50.658;14.004;2023-02-01T06:15:42;3.15;;;1.10;;
65418;SDS011;52027;50.658;14.004;2023-02-01T06:18:08;5.10;;;1.13;;
65418;SDS011;52027;50.658;14.004;2023-02-01T06:20:34;5.22;;;1.10;;
65418;SDS011;52027;50.658;14.004;2023-02-01T06:22:59;7.35;;;1.40;;
65418;SDS011;52027;50.658;14.004;2023-02-01T06:25:25;5.43;;;1.30;;
65418;SDS011;52027;50.658;14.004;2023-02-01T06:27:50;4.22;;;1.30;;
65418;SDS011;52027;50.658;14.004;2023-02-01T06:30:15;5.35;;;1.30;;
65418;SDS011;52027;50.658;14.004;2023-02-01T06:32:41;5.28;;;1.17;;
65418;SDS011;52027;50.658;14.004;2023-02-01T06:35:10;4.93;;;1.15;;
65418;SDS011;52027;50.658;14.004;2023-02-01T06:37:40;8.00;;;1.38;;
65418;SDS011;52027;50.658;14.004;2023-02-01T06:40:06;6.47;;;1.33;;
65418;SDS011;52027;50.658;14.004;2023-02-01T06:42:33;7.25;;;1.40;;
65418;SDS011;52027;50.658;14.004;2023-02-01T06:44:58;7.45;;;1.30;;
65418;SDS011;52027;50.658;14.004;2023-02-01T06:47:24;7.28;;;1.50;;
65418;SDS011;52027;50.658;14.004;2023-02-01T06:49:49;5.25;;;1.15;;
65418;SDS011;52027;50.658;14.004;2023-02-01T06:52:14;5.45;;;1.50;;
65418;SDS011;52027;50.658;14.004;2023-02-01T06:54:40;5.30;;;1.40;;
65418;SDS011;52027;50.658;14.004;2023-02-01T06:57:05;4.80;;;1.50;;
65418;SDS011;52027;50.658;14.004;2023-02-01T06:59:30;9.48;;;1.70;;
65418;SDS011;52027;50.658;14.004;2023-02-01T07:01:56;7.65;;;1.58;;
65418;SDS011;52027;50.658;14.004;2023-02-01T07:04:21;7.18;;;1.88;;
65418;SDS011;52027;50.658;14.004;2023-02-01T07:06:46;8.65;;;1.60;;
65418;SDS011;52027;50.658;14.004;2023-02-01T07:09:12;7.10;;;1.77;;
65418;SDS011;52027;50.658;14.004;2023-02-01T07:11:38;9.88;;;1.80;;
65418;SDS011;52027;50.658;14.004;2023-02-01T07:14:08;10.60;;;1.80;;
65418;SDS011;52027;50.658;14.004;2023-02-01T07:16:34;11.68;;;1.90;;
65418;SDS011;52027;50.658;14.004;2023-02-01T07:18:59;8.85;;;1.70;;
65418;SDS011;52027;50.658;14.004;2023-02-01T07:21:24;9.40;;;1.67;;
65418;SDS011;52027;50.658;14.004;2023-02-01T07:23:50;15.90;;;1.90;;
65418;SDS011;52027;50.658;14.004;2023-02-01T07:26:15;9.38;;;1.90;;
65418;SDS011;52027;50.658;14.004;2023-02-01T07:28:41;8.98;;;1.70;;
65418;SDS011;52027;50.658;14.004;2023-02-01T07:31:08;16.27;;;2.30;;
65418;SDS011;52027;50.658;14.004;2023-02-01T07:33:38;17.73;;;2.35;;
65418;SDS011;52027;50.658;14.004;2023-02-01T07:36:04;18.25;;;2.88;;
65418;SDS011;52027;50.658;14.004;2023-02-01T07:38:31;16.27;;;2.38;;
65418;SDS011;52027;50.658;14.004;2023-02-01T07:41:00;13.35;;;2.65;;
65418;SDS011;52027;50.658;14.004;2023-02-01T07:43:27;17.17;;;2.50;;
65418;SDS011;52027;50.658;14.004;2023-02-01T07:45:53;12.35;;;2.35;;
65418;SDS011;52027;50.658;14.004;2023-02-01T07:48:19;14.63;;;2.10;;
65418;SDS011;52027;50.658;14.004;2023-02-01T07:50:46;12.43;;;2.33;;
65418;SDS011;52027;50.658;14.004;2023-02-01T07:53:11;12.48;;;2.20;;
65418;SDS011;52027;50.658;14.004;2023-02-01T07:55:40;7.85;;;1.85;;
65418;SDS011;52027;50.658;14.004;2023-02-01T07:58:05;7.85;;;1.85;;
65418;SDS011;52027;50.658;14.004;2023-02-01T08:00:31;7.78;;;2.08;;
65418;SDS011;52027;50.658;14.004;2023-02-01T08:03:15;13.25;;;2.25;;
65418;SDS011;52027;50.658;14.004;2023-02-01T08:05:40;12.38;;;2.60;;
65418;SDS011;52027;50.658;14.004;2023-02-01T08:08:06;9.38;;;2.00;;
65418;SDS011;52027;50.658;14.004;2023-02-01T08:10:31;18.13;;;2.35;;
65418;SDS011;52027;50.658;14.004;2023-02-01T08:12:57;8.57;;;2.05;;
65418;SDS011;52027;50.658;14.004;2023-02-01T08:15:24;13.27;;;2.33;;
65418;SDS011;52027;50.658;14.004;2023-02-01T08:17:51;11.20;;;2.17;;
65418;SDS011;52027;50.658;14.004;2023-02-01T08:20:17;12.52;;;2.88;;
65418;SDS011;52027;50.658;14.004;2023-02-01T08:22:43;13.85;;;1.92;;
65418;SDS011;52027;50.658;14.004;2023-02-01T08:25:09;10.15;;;1.80;;
65418;SDS011;52027;50.658;14.004;2023-02-01T08:27:36;11.52;;;1.90;;
65418;SDS011;52027;50.658;14.004;2023-02-01T08:30:02;16.48;;;2.17;;
65418;SDS011;52027;50.658;14.004;2023-02-01T08:32:28;6.95;;;1.98;;
65418;SDS011;52027;50.658;14.004;2023-02-01T08:34:53;13.15;;;2.22;;
65418;SDS011;52027;50.658;14.004;2023-02-01T08:37:19;14.60;;;2.63;;
65418;SDS011;52027;50.658;14.004;2023-02-01T08:39:44;12.80;;;2.20;;
65418;SDS011;52027;50.658;14.004;2023-02-01T08:42:10;14.50;;;1.90;;
65418;SDS011;52027;50.658;14.004;2023-02-01T08:44:54;9.90;;;1.83;;
65418;SDS011;52027;50.658;14.004;2023-02-01T08:47:19;8.27;;;2.10;;
65418;SDS011;52027;50.658;14.004;2023-02-01T08:49:45;16.42;;;1.95;;
65418;SDS011;52027;50.658;14.004;2023-02-01T08:52:11;12.00;;;2.00;;
65418;SDS011;52027;50.658;14.004;2023-02-01T08:54:36;11.50;;;2.08;;
65418;SDS011;52027;50.658;14.004;2023-02-01T08:57:02;13.20;;;1.85;;
65418;SDS011;52027;50.658;14.004;2023-02-01T08:59:27;15.13;;;2.45;;
65418;SDS011;52027;50.658;14.004;2023-02-01T09:01:52;11.73;;;2.00;;
65418;SDS011;52027;50.658;14.004;2023-02-01T09:04:18;11.57;;;1.85;;
65418;SDS011;52027;50.658;14.004;2023-02-01T09:06:43;8.60;;;1.80;;
65418;SDS011;52027;50.658;14.004;2023-02-01T09:09:08;12.88;;;1.95;;
65418;SDS011;52027;50.658;14.004;2023-02-01T09:11:34;12.07;;;2.30;;
65418;SDS011;52027;50.658;14.004;2023-02-01T09:13:59;11.57;;;2.30;;
65418;SDS011;52027;50.658;14.004;2023-02-01T09:16:24;13.23;;;1.92;;
65418;SDS011;52027;50.658;14.004;2023-02-01T09:18:50;11.02;;;2.10;;
65418;SDS011;52027;50.658;14.004;2023-02-01T09:21:15;13.48;;;1.98;;
65418;SDS011;52027;50.658;14.004;2023-02-01T09:23:40;17.45;;;2.00;;
65418;SDS011;52027;50.658;14.004;2023-02-01T09:26:06;10.35;;;2.25;;
65418;SDS011;52027;50.658;14.004;2023-02-01T09:28:32;11.90;;;1.95;;
65418;SDS011;52027;50.658;14.004;2023-02-01T09:30:59;14.15;;;2.25;;
65418;SDS011;52027;50.658;14.004;2023-02-01T09:33:26;10.77;;;2.05;;
65418;SDS011;52027;50.658;14.004;2023-02-01T09:35:56;11.68;;;2.20;;
65418;SDS011;52027;50.658;14.004;2023-02-01T09:38:26;9.85;;;1.77;;
65418;SDS011;52027;50.658;14.004;2023-02-01T09:40:53;13.40;;;1.90;;
65418;SDS011;52027;50.658;14.004;2023-02-01T09:43:22;12.07;;;2.25;;
65418;SDS011;52027;50.658;14.004;2023-02-01T09:46:18;12.30;;;1.88;;
65418;SDS011;52027;50.658;14.004;2023-02-01T09:48:44;9.50;;;2.10;;
65418;SDS011;52027;50.658;14.004;2023-02-01T09:51:14;16.98;;;2.03;;
65418;SDS011;52027;50.658;14.004;2023-02-01T09:53:44;12.77;;;2.00;;
65418;SDS011;52027;50.658;14.004;2023-02-01T09:56:26;12.98;;;2.25;;
65418;SDS011;52027;50.658;14.004;2023-02-01T09:59:09;15.68;;;2.55;;
65418;SDS011;52027;50.658;14.004;2023-02-01T10:01:48;8.40;;;2.10;;
65418;SDS011;52027;50.658;14.004;2023-02-01T10:04:14;13.23;;;2.20;;
65418;SDS011;52027;50.658;14.004;2023-02-01T10:09:25;12.00;;;2.35;;
65418;SDS011;52027;50.658;14.004;2023-02-01T10:12:12;11.98;;;2.03;;
65418;SDS011;52027;50.658;14.004;2023-02-01T10:14:55;19.35;;;2.30;;
65418;SDS011;52027;50.658;14.004;2023-02-01T10:17:29;11.50;;;2.30;;
65418;SDS011;52027;50.658;14.004;2023-02-01T10:20:24;11.80;;;2.00;;
65418;SDS011;52027;50.658;14.004;2023-02-01T10:23:10;14.95;;;2.30;;
65418;SDS011;52027;50.658;14.004;2023-02-01T10:25:58;13.77;;;2.50;;
65418;SDS011;52027;50.658;14.004;2023-02-01T10:28:26;11.32;;;2.05;;
65418;SDS011;52027;50.658;14.004;2023-02-01T10:30:52;10.82;;;2.08;;
65418;SDS011;52027;50.658;14.004;2023-02-01T10:33:41;14.20;;;2.17;;
65418;SDS011;52027;50.658;14.004;2023-02-01T10:36:28;10.30;;;2.17;;
65418;SDS011;52027;50.658;14.004;2023-02-01T10:38:55;11.20;;;2.20;;
65418;SDS011;52027;50.658;14.004;2023-02-01T10:41:23;14.43;;;2.42;;
65418;SDS011;52027;50.658;14.004;2023-02-01T10:43:54;19.27;;;2.25;;
65418;SDS011;52027;50.658;14.004;2023-02-01T10:46:23;16.08;;;2.45;;
65418;SDS011;52027;50.658;14.004;2023-02-01T10:48:49;13.48;;;2.00;;
65418;SDS011;52027;50.658;14.004;2023-02-01T10:51:27;14.60;;;2.25;;
65418;SDS011;52027;50.658;14.004;2023-02-01T10:54:00;12.70;;;2.05;;
65418;SDS011;52027;50.658;14.004;2023-02-01T10:56:34;14.15;;;2.50;;
65418;SDS011;52027;50.658;14.004;2023-02-01T10:59:06;14.00;;;2.17;;
65418;SDS011;52027;50.658;14.004;2023-02-01T11:01:43;12.38;;;2.45;;
65418;SDS011;52027;50.658;14.004;2023-02-01T11:04:12;11.00;;;2.35;;
65418;SDS011;52027;50.658;14.004;2023-02-01T11:06:41;10.63;;;2.15;;
65418;SDS011;52027;50.658;14.004;2023-02-01T11:09:10;10.57;;;2.30;;
65418;SDS011;52027;50.658;14.004;2023-02-01T11:14:15;15.30;;;2.43;;
65418;SDS011;52027;50.658;14.004;2023-02-01T11:16:46;14.35;;;2.28;;
65418;SDS011;52027;50.658;14.004;2023-02-01T11:19:17;12.52;;;2.30;;
65418;SDS011;52027;50.658;14.004;2023-02-01T11:21:43;17.30;;;2.38;;
65418;SDS011;52027;50.658;14.004;2023-02-01T11:24:31;11.48;;;2.47;;
65418;SDS011;52027;50.658;14.004;2023-02-01T11:27:01;16.70;;;2.28;;
65418;SDS011;52027;50.658;14.004;2023-02-01T11:29:31;18.23;;;2.75;;
65418;SDS011;52027;50.658;14.004;2023-02-01T11:32:03;12.27;;;2.05;;
65418;SDS011;52027;50.658;14.004;2023-02-01T11:34:32;14.25;;;2.30;;
65418;SDS011;52027;50.658;14.004;2023-02-01T11:37:03;23.42;;;2.50;;
65418;SDS011;52027;50.658;14.004;2023-02-01T11:39:35;16.27;;;2.33;;
65418;SDS011;52027;50.658;14.004;2023-02-01T11:42:13;10.60;;;1.92;;
65418;SDS011;52027;50.658;14.004;2023-02-01T11:44:41;20.10;;;2.67;;
65418;SDS011;52027;50.658;14.004;2023-02-01T11:47:27;13.98;;;2.40;;
65418;SDS011;52027;50.658;14.004;2023-02-01T11:49:57;12.40;;;2.10;;
65418;SDS011;52027;50.658;14.004;2023-02-01T11:55:29;13.35;;;2.20;;
65418;SDS011;52027;50.658;14.004;2023-02-01T12:00:39;9.00;;;2.13;;
65418;SDS011;52027;50.658;14.004;2023-02-01T12:11:52;12.30;;;2.88;;
65418;SDS011;52027;50.658;14.004;2023-02-01T12:17:18;14.35;;;2.33;;
65418;SDS011;52027;50.658;14.004;2023-02-01T12:20:15;13.75;;;2.20;;
65418;SDS011;52027;50.658;14.004;2023-02-01T12:23:19;12.63;;;1.88;;
65418;SDS011;52027;50.658;14.004;2023-02-01T12:34:19;10.40;;;1.90;;
65418;SDS011;52027;50.658;14.004;2023-02-01T12:39:19;9.32;;;2.00;;
65418;SDS011;52027;50.658;14.004;2023-02-01T12:41:57;9.55;;;2.05;;
65418;SDS011;52027;50.658;14.004;2023-02-01T12:44:32;13.20;;;2.38;;
65418;SDS011;52027;50.658;14.004;2023-02-01T12:47:11;12.45;;;2.17;;
65418;SDS011;52027;50.658;14.004;2023-02-01T12:55:06;11.45;;;2.60;;
65418;SDS011;52027;50.658;14.004;2023-02-01T12:57:41;14.00;;;1.90;;
65418;SDS011;52027;50.658;14.004;2023-02-01T13:00:22;10.65;;;2.00;;
65418;SDS011;52027;50.658;14.004;2023-02-01T13:08:20;9.02;;;2.25;;
65418;SDS011;52027;50.658;14.004;2023-02-01T13:13:48;11.18;;;2.10;;
65418;SDS011;52027;50.658;14.004;2023-02-01T13:18:51;6.18;;;1.83;;
65418;SDS011;52027;50.658;14.004;2023-02-01T13:21:25;10.35;;;2.03;;
65418;SDS011;52027;50.658;14.004;2023-02-01T13:23:52;10.32;;;1.90;;
65418;SDS011;52027;50.658;14.004;2023-02-01T13:26:18;8.95;;;2.00;;
65418;SDS011;52027;50.658;14.004;2023-02-01T13:34:26;11.82;;;1.98;;
65418;SDS011;52027;50.658;14.004;2023-02-01T13:45:17;13.20;;;2.17;;
65418;SDS011;52027;50.658;14.004;2023-02-01T13:47:45;15.05;;;2.22;;
65418;SDS011;52027;50.658;14.004;2023-02-01T13:50:28;10.02;;;2.00;;
65418;SDS011;52027;50.658;14.004;2023-02-01T13:55:36;12.93;;;2.20;;
65418;SDS011;52027;50.658;14.004;2023-02-01T13:58:33;14.07;;;2.13;;
65418;SDS011;52027;50.658;14.004;2023-02-01T14:03:48;9.05;;;1.98;;
65418;SDS011;52027;50.658;14.004;2023-02-01T14:11:53;14.75;;;2.10;;
65418;SDS011;52027;50.658;14.004;2023-02-01T14:14:37;14.00;;;1.98;;
65418;SDS011;52027;50.658;14.004;2023-02-01T14:19:35;10.30;;;2.03;;
65418;SDS011;52027;50.658;14.004;2023-02-01T14:22:01;17.70;;;2.20;;
65418;SDS011;52027;50.658;14.004;2023-02-01T14:24:52;12.98;;;2.00;;
65418;SDS011;52027;50.658;14.004;2023-02-01T14:27:21;13.05;;;2.28;;
65418;SDS011;52027;50.658;14.004;2023-02-01T14:29:53;12.45;;;2.00;;
65418;SDS011;52027;50.658;14.004;2023-02-01T14:35:21;11.50;;;2.20;;
65418;SDS011;52027;50.658;14.004;2023-02-01T14:37:51;8.77;;;1.90;;
65418;SDS011;52027;50.658;14.004;2023-02-01T14:40:26;12.15;;;2.15;;
65418;SDS011;52027;50.658;14.004;2023-02-01T14:42:53;11.38;;;2.05;;
65418;SDS011;52027;50.658;14.004;2023-02-01T14:47:48;10.88;;;1.95;;
65418;SDS011;52027;50.658;14.004;2023-02-01T15:06:22;12.82;;;2.08;;
65418;SDS011;52027;50.658;14.004;2023-02-01T15:08:55;17.00;;;1.98;;
65418;SDS011;52027;50.658;14.004;2023-02-01T15:11:24;11.18;;;1.90;;
65418;SDS011;52027;50.658;14.004;2023-02-01T15:13:51;12.50;;;2.17;;
65418;SDS011;52027;50.658;14.004;2023-02-01T15:16:19;13.18;;;1.90;;
65418;SDS011;52027;50.658;14.004;2023-02-01T15:18:47;10.63;;;2.28;;
65418;SDS011;52027;50.658;14.004;2023-02-01T15:21:20;10.52;;;1.83;;
65418;SDS011;52027;50.658;14.004;2023-02-01T15:23:47;15.52;;;2.28;;
65418;SDS011;52027;50.658;14.004;2023-02-01T15:26:29;9.10;;;1.90;;
65418;SDS011;52027;50.658;14.004;2023-02-01T15:28:57;7.07;;;2.03;;
65418;SDS011;52027;50.658;14.004;2023-02-01T15:31:33;5.45;;;1.63;;
65418;SDS011;52027;50.658;14.004;2023-02-01T15:34:03;9.20;;;1.80;;
65418;SDS011;52027;50.658;14.004;2023-02-01T15:36:29;7.63;;;1.83;;
65418;SDS011;52027;50.658;14.004;2023-02-01T15:41:45;10.70;;;2.08;;
65418;SDS011;52027;50.658;14.004;2023-02-01T15:46:45;5.82;;;1.73;;
65418;SDS011;52027;50.658;14.004;2023-02-01T15:49:20;8.13;;;1.73;;
65418;SDS011;52027;50.658;14.004;2023-02-01T15:51:47;9.32;;;2.10;;
65418;SDS011;52027;50.658;14.004;2023-02-01T15:54:17;9.38;;;1.73;;
65418;SDS011;52027;50.658;14.004;2023-02-01T15:56:49;11.23;;;1.90;;
65418;SDS011;52027;50.658;14.004;2023-02-01T15:59:20;9.38;;;2.03;;
65418;SDS011;52027;50.658;14.004;2023-02-01T16:01:53;9.95;;;1.58;;
65418;SDS011;52027;50.658;14.004;2023-02-01T16:04:20;10.15;;;1.88;;
65418;SDS011;52027;50.658;14.004;2023-02-01T16:06:49;6.38;;;1.73;;
65418;SDS011;52027;50.658;14.004;2023-02-01T16:09:20;8.95;;;1.88;;
65418;SDS011;52027;50.658;14.004;2023-02-01T16:11:56;7.20;;;1.80;;
65418;SDS011;52027;50.658;14.004;2023-02-01T16:14:23;7.25;;;1.98;;
65418;SDS011;52027;50.658;14.004;2023-02-01T16:16:49;6.70;;;1.73;;
65418;SDS011;52027;50.658;14.004;2023-02-01T16:19:16;8.73;;;1.90;;
65418;SDS011;52027;50.658;14.004;2023-02-01T16:21:42;7.00;;;1.60;;
65418;SDS011;52027;50.658;14.004;2023-02-01T16:24:07;6.80;;;1.60;;
65418;SDS011;52027;50.658;14.004;2023-02-01T16:26:33;7.75;;;1.70;;
65418;SDS011;52027;50.658;14.004;2023-02-01T16:28:59;6.78;;;1.63;;
65418;SDS011;52027;50.658;14.004;2023-02-01T16:31:28;4.57;;;1.60;;
65418;SDS011;52027;50.658;14.004;2023-02-01T16:33:56;6.10;;;1.80;;
65418;SDS011;52027;50.658;14.004;2023-02-01T16:36:22;8.48;;;1.77;;
65418;SDS011;52027;50.658;14.004;2023-02-01T16:38:48;7.53;;;1.80;;
65418;SDS011;52027;50.658;14.004;2023-02-01T16:41:15;6.28;;;1.70;;
65418;SDS011;52027;50.658;14.004;2023-02-01T16:43:42;6.05;;;1.80;;
65418;SDS011;52027;50.658;14.004;2023-02-01T16:46:12;5.28;;;1.60;;
65418;SDS011;52027;50.658;14.004;2023-02-01T16:48:40;7.57;;;1.73;;
65418;SDS011;52027;50.658;14.004;2023-02-01T16:51:12;7.85;;;1.75;;
65418;SDS011;52027;50.658;14.004;2023-02-01T16:53:40;6.78;;;2.20;;
65418;SDS011;52027;50.658;14.004;2023-02-01T16:56:19;4.93;;;1.70;;
65418;SDS011;52027;50.658;14.004;2023-02-01T16:59:06;5.18;;;1.67;;